sensor_id;sensor_type;location;lat;lon;timestamp;pressure;altitude;pressure_sealevel;temperature;humidity
28588;BME280;15787;49.662;10.162;2023-05-03T00:01:42;100036.56;;;8.25;97.45
28588;BME280;15787;49.662;10.162;2023-05-03T00:04:15;100034.97;;;8.21;97.80
28588;BME280;15787;49.662;10.162;2023-05-03T00:06:49;100037.31;;;8.19;98.98
28588;BME280;15787;49.662;10.162;2023-05-03T00:09:22;100038.59;;;8.39;98.81
28588;BME280;15787;49.662;10.162;2023-05-03T00:11:54;100026.63;;;8.21;98.46
28588;BME280;15787;49.662;10.162;2023-05-03T00:14:27;100033.69;;;8.11;99.66
28588;BME280;15787;49.662;10.162;2023-05-03T00:17:02;100041.31;;;8.25;99.79
28588;BME280;15787;49.662;10.162;2023-05-03T00:19:34;100038.88;;;8.06;99.74
28588;BME280;15787;49.662;10.162;2023-05-03T00:22:07;100031.72;;;8.12;99.60
28588;BME280;15787;49.662;10.162;2023-05-03T00:24:40;100038.84;;;8.02;99.74
28588;BME280;15787;49.662;10.162;2023-05-03T00:27:13;100038.81;;;7.99;100.00
28588;BME280;15787;49.662;10.162;2023-05-03T00:29:46;100043.13;;;7.89;100.00
28588;BME280;15787;49.662;10.162;2023-05-03T00:32:20;100042.72;;;7.84;100.00
28588;BME280;15787;49.662;10.162;2023-05-03T00:34:54;100044.66;;;7.73;100.00
28588;BME280;15787;49.662;10.162;2023-05-03T00:37:27;100038.59;;;7.60;100.00
28588;BME280;15787;49.662;10.162;2023-05-03T00:40:01;100041.13;;;7.83;100.00
28588;BME280;15787;49.662;10.162;2023-05-03T00:42:35;100032.72;;;7.72;100.00
28588;BME280;15787;49.662;10.162;2023-05-03T00:45:09;100039.47;;;7.71;100.00
28588;BME280;15787;49.662;10.162;2023-05-03T00:47:43;100037.06;;;7.73;100.00
28588;BME280;15787;49.662;10.162;2023-05-03T00:50:16;100035.47;;;7.69;100.00
28588;BME280;15787;49.662;10.162;2023-05-03T00:52:50;100037.84;;;7.67;100.00
28588;BME280;15787;49.662;10.162;2023-05-03T00:55:23;100033.06;;;7.60;100.00
28588;BME280;15787;49.662;10.162;2023-05-03T00:57:56;100032.63;;;7.54;100.00
28588;BME280;15787;49.662;10.162;2023-05-03T01:00:30;100034.47;;;7.36;100.00
28588;BME280;15787;49.662;10.162;2023-05-03T01:03:05;100034.13;;;7.45;100.00
28588;BME280;15787;49.662;10.162;2023-05-03T01:05:44;100039.66;;;7.41;100.00
28588;BME280;15787;49.662;10.162;2023-05-03T01:08:28;100032.09;;;7.38;100.00
28588;BME280;15787;49.662;10.162;2023-05-03T01:11:07;100021.78;;;7.39;100.00
28588;BME280;15787;49.662;10.162;2023-05-03T01:13:47;100024.72;;;7.60;100.00
28588;BME280;15787;49.662;10.162;2023-05-03T01:16:30;100026.50;;;7.31;100.00
28588;BME280;15787;49.662;10.162;2023-05-03T01:19:28;100023.03;;;7.48;100.00
28588;BME280;15787;49.662;10.162;2023-05-03T01:22:13;100021.78;;;7.39;100.00
28588;BME280;15787;49.662;10.162;2023-05-03T01:24:50;100025.28;;;7.29;100.00
28588;BME280;15787;49.662;10.162;2023-05-03T01:27:28;100021.75;;;7.35;100.00
28588;BME280;15787;49.662;10.162;2023-05-03T01:30:03;100017.31;;;7.27;100.00
28588;BME280;15787;49.662;10.162;2023-05-03T01:32:45;100013.44;;;7.42;100.00
28588;BME280;15787;49.662;10.162;2023-05-03T01:35:25;100020.94;;;7.31;100.00
28588;BME280;15787;49.662;10.162;2023-05-03T01:38:00;100023.66;;;7.24;100.00
28588;BME280;15787;49.662;10.162;2023-05-03T01:40:39;100020.66;;;7.47;100.00
28588;BME280;15787;49.662;10.162;2023-05-03T01:43:16;100015.81;;;7.40;100.00
28588;BME280;15787;49.662;10.162;2023-05-03T01:45:51;100014.53;;;7.27;100.00
28588;BME280;15787;49.662;10.162;2023-05-03T01:48:24;100016.22;;;7.42;100.00
28588;BME280;15787;49.662;10.162;2023-05-03T01:50:57;100020.19;;;7.38;100.00
28588;BME280;15787;49.662;10.162;2023-05-03T01:53:30;100020.94;;;7.31;100.00
28588;BME280;15787;49.662;10.162;2023-05-03T01:56:03;100012.59;;;7.31;100.00
28588;BME280;15787;49.662;10.162;2023-05-03T01:58:38;100014.63;;;7.34;100.00
28588;BME280;15787;49.662;10.162;2023-05-03T02:01:11;99999.59;;;7.46;100.00
28588;BME280;15787;49.662;10.162;2023-05-03T02:03:44;100006.75;;;7.50;100.00
28588;BME280;15787;49.662;10.162;2023-05-03T02:06:16;100007.72;;;7.18;100.00
28588;BME280;15787;49.662;10.162;2023-05-03T02:08:49;100014.72;;;7.52;100.00
28588;BME280;15787;49.662;10.162;2023-05-03T02:11:23;100022.94;;;7.38;99.15
28588;BME280;15787;49.662;10.162;2023-05-03T02:13:57;100021.75;;;7.32;100.00
28588;BME280;15787;49.662;10.162;2023-05-03T02:16:30;100019.72;;;7.32;100.00
28588;BME280;15787;49.662;10.162;2023-05-03T02:19:03;100010.66;;;7.39;100.00
28588;BME280;15787;49.662;10.162;2023-05-03T02:21:37;100018.09;;;7.24;100.00
28588;BME280;15787;49.662;10.162;2023-05-03T02:24:10;100015.47;;;7.45;100.00
28588;BME280;15787;49.662;10.162;2023-05-03T02:26:43;100014.97;;;7.33;100.00
28588;BME280;15787;49.662;10.162;2023-05-03T02:29:17;100020.63;;;7.43;100.00
28588;BME280;15787;49.662;10.162;2023-05-03T02:31:50;100021.75;;;7.32;100.00
28588;BME280;15787;49.662;10.162;2023-05-03T02:34:23;100018.22;;;7.42;100.00
28588;BME280;15787;49.662;10.162;2023-05-03T02:36:56;100017.94;;;7.61;100.00
28588;BME280;15787;49.662;10.162;2023-05-03T02:39:29;100022.75;;;7.64;100.00
28588;BME280;15787;49.662;10.162;2023-05-03T02:42:02;100013.59;;;7.60;100.00
28588;BME280;15787;49.662;10.162;2023-05-03T02:44:36;100024.34;;;7.69;100.00
28588;BME280;15787;49.662;10.162;2023-05-03T02:47:09;100020.84;;;7.75;100.00
28588;BME280;15787;49.662;10.162;2023-05-03T02:49:45;100014.31;;;7.53;100.00
28588;BME280;15787;49.662;10.162;2023-05-03T02:52:19;100006.91;;;7.72;100.00
28588;BME280;15787;49.662;10.162;2023-05-03T02:54:53;100008.81;;;7.60;100.00
28588;BME280;15787;49.662;10.162;2023-05-03T02:57:26;100012.06;;;7.70;100.00
28588;BME280;15787;49.662;10.162;2023-05-03T03:00:02;100010.00;;;7.59;100.00
28588;BME280;15787;49.662;10.162;2023-05-03T03:02:37;100015.28;;;7.79;100.00
28588;BME280;15787;49.662;10.162;2023-05-03T03:05:11;100013.63;;;7.67;100.00
28588;BME280;15787;49.662;10.162;2023-05-03T03:07:49;100013.44;;;7.42;100.00
28588;BME280;15787;49.662;10.162;2023-05-03T03:10:22;100016.78;;;7.62;100.00
28588;BME280;15787;49.662;10.162;2023-05-03T03:12:55;100015.53;;;7.52;100.00
28588;BME280;15787;49.662;10.162;2023-05-03T03:15:36;100012.72;;;7.49;100.00
28588;BME280;15787;49.662;10.162;2023-05-03T03:18:09;100008.28;;;7.41;100.00
28588;BME280;15787;49.662;10.162;2023-05-03T03:20:42;100015.91;;;7.47;100.00
28588;BME280;15787;49.662;10.162;2023-05-03T03:23:15;100022.25;;;7.51;100.00
28588;BME280;15787;49.662;10.162;2023-05-03T03:25:48;100013.16;;;7.54;100.00
28588;BME280;15787;49.662;10.162;2023-05-03T03:28:21;100021.50;;;7.54;100.00
28588;BME280;15787;49.662;10.162;2023-05-03T03:30:56;100020.41;;;7.73;100.00
28588;BME280;15787;49.662;10.162;2023-05-03T03:33:29;100023.53;;;7.64;100.00
28588;BME280;15787;49.662;10.162;2023-05-03T03:36:09;100019.16;;;7.60;100.00
28588;BME280;15787;49.662;10.162;2023-05-03T03:38:45;100028.25;;;7.60;100.00
28588;BME280;15787;49.662;10.162;2023-05-03T03:41:18;100022.34;;;7.62;100.00
28588;BME280;15787;49.662;10.162;2023-05-03T03:43:53;100033.06;;;7.60;100.00
28588;BME280;15787;49.662;10.162;2023-05-03T03:46:27;100033.06;;;7.60;100.00
28588;BME280;15787;49.662;10.162;2023-05-03T03:49:02;100037.53;;;7.86;100.00
28588;BME280;15787;49.662;10.162;2023-05-03T03:51:35;100040.50;;;7.49;100.00
28588;BME280;15787;49.662;10.162;2023-05-03T03:54:08;100044.47;;;7.48;100.00
28588;BME280;15787;49.662;10.162;2023-05-03T03:56:46;100040.22;;;7.64;100.00
28588;BME280;15787;49.662;10.162;2023-05-03T03:59:19;100044.53;;;7.58;99.88
28588;BME280;15787;49.662;10.162;2023-05-03T04:01:54;100042.84;;;7.43;99.37
28588;BME280;15787;49.662;10.162;2023-05-03T04:04:27;100042.97;;;7.57;99.32
28588;BME280;15787;49.662;10.162;2023-05-03T04:07:00;100039.50;;;7.75;98.29
28588;BME280;15787;49.662;10.162;2023-05-03T04:09:34;100043.38;;;7.63;98.22
28588;BME280;15787;49.662;10.162;2023-05-03T04:12:07;100044.78;;;7.36;98.10
28588;BME280;15787;49.662;10.162;2023-05-03T04:14:40;100052.06;;;7.54;97.82
28588;BME280;15787;49.662;10.162;2023-05-03T04:17:14;100046.03;;;7.45;98.07
28588;BME280;15787;49.662;10.162;2023-05-03T04:19:47;100059.19;;;7.52;98.65
28588;BME280;15787;49.662;10.162;2023-05-03T04:22:20;100054.19;;;7.75;98.24
28588;BME280;15787;49.662;10.162;2023-05-03T04:24:53;100048.53;;;7.61;97.35
28588;BME280;15787;49.662;10.162;2023-05-03T04:27:26;100053.38;;;7.75;96.78
28588;BME280;15787;49.662;10.162;2023-05-03T04:29:59;100061.63;;;7.57;96.65
28588;BME280;15787;49.662;10.162;2023-05-03T04:32:35;100070.03;;;7.68;95.66
28588;BME280;15787;49.662;10.162;2023-05-03T04:35:13;100065.28;;;7.72;94.93
28588;BME280;15787;49.662;10.162;2023-05-03T04:37:50;100073.97;;;7.67;94.30
28588;BME280;15787;49.662;10.162;2023-05-03T04:40:27;100082.41;;;7.77;94.21
28588;BME280;15787;49.662;10.162;2023-05-03T04:43:06;100069.56;;;7.58;94.06
28588;BME280;15787;49.662;10.162;2023-05-03T04:45:42;100072.75;;;7.60;94.88
28588;BME280;15787;49.662;10.162;2023-05-03T04:48:21;100071.00;;;7.38;94.60
28588;BME280;15787;49.662;10.162;2023-05-03T04:50:54;100082.72;;;7.65;93.33
28588;BME280;15787;49.662;10.162;2023-05-03T04:53:28;100084.88;;;7.38;93.50
28588;BME280;15787;49.662;10.162;2023-05-03T04:56:09;100072.56;;;7.36;93.85
28588;BME280;15787;49.662;10.162;2023-05-03T04:58:44;100082.06;;;7.31;93.99
28588;BME280;15787;49.662;10.162;2023-05-03T05:01:19;100080.34;;;7.16;93.73
28588;BME280;15787;49.662;10.162;2023-05-03T05:04:00;100080.44;;;7.27;93.80
28588;BME280;15787;49.662;10.162;2023-05-03T05:06:41;100093.88;;;7.21;94.40
28588;BME280;15787;49.662;10.162;2023-05-03T05:09:20;100089.53;;;7.27;94.01
28588;BME280;15787;49.662;10.162;2023-05-03T05:11:55;100089.13;;;7.25;94.44
28588;BME280;15787;49.662;10.162;2023-05-03T05:14:33;100091.91;;;7.25;93.52
28588;BME280;15787;49.662;10.162;2023-05-03T05:17:06;100094.22;;;7.16;93.09
28588;BME280;15787;49.662;10.162;2023-05-03T05:19:41;100096.34;;;7.33;92.68
28588;BME280;15787;49.662;10.162;2023-05-03T05:22:13;100093.97;;;7.32;92.66
28588;BME280;15787;49.662;10.162;2023-05-03T05:24:52;100105.81;;;7.25;92.49
28588;BME280;15787;49.662;10.162;2023-05-03T05:27:26;100105.13;;;7.39;92.88
28588;BME280;15787;49.662;10.162;2023-05-03T05:30:01;100104.88;;;7.58;92.42
28588;BME280;15787;49.662;10.162;2023-05-03T05:32:36;100102.50;;;7.56;91.93
28588;BME280;15787;49.662;10.162;2023-05-03T05:35:14;100106.53;;;7.62;90.60
28588;BME280;15787;49.662;10.162;2023-05-03T05:37:50;100104.38;;;7.45;91.32
28588;BME280;15787;49.662;10.162;2023-05-03T05:40:23;100107.69;;;7.61;91.14
28588;BME280;15787;49.662;10.162;2023-05-03T05:43:00;100099.59;;;7.42;91.64
28588;BME280;15787;49.662;10.162;2023-05-03T05:45:36;100111.69;;;7.64;91.57
28588;BME280;15787;49.662;10.162;2023-05-03T05:48:09;100098.28;;;7.77;90.75
28588;BME280;15787;49.662;10.162;2023-05-03T05:50:44;100103.44;;;7.75;90.74
28588;BME280;15787;49.662;10.162;2023-05-03T05:53:18;100113.44;;;7.83;91.53
28588;BME280;15787;49.662;10.162;2023-05-03T05:55:58;100106.31;;;7.89;90.81
28588;BME280;15787;49.662;10.162;2023-05-03T05:58:34;100105.25;;;8.11;90.81
28588;BME280;15787;49.662;10.162;2023-05-03T06:01:09;100108.41;;;8.09;90.46
28588;BME280;15787;49.662;10.162;2023-05-03T06:03:42;100104.53;;;8.21;89.05
28588;BME280;15787;49.662;10.162;2023-05-03T06:06:16;100109.28;;;8.20;89.50
28588;BME280;15787;49.662;10.162;2023-05-03T06:08:49;100107.81;;;8.41;88.71
28588;BME280;15787;49.662;10.162;2023-05-03T06:11:24;100111.38;;;8.38;89.12
28588;BME280;15787;49.662;10.162;2023-05-03T06:13:59;100120.28;;;8.71;87.45
28588;BME280;15787;49.662;10.162;2023-05-03T06:16:35;100113.81;;;8.57;87.59
28588;BME280;15787;49.662;10.162;2023-05-03T06:19:08;100113.56;;;8.86;87.62
28588;BME280;15787;49.662;10.162;2023-05-03T06:21:43;100112.72;;;8.82;87.41
28588;BME280;15787;49.662;10.162;2023-05-03T06:24:16;100106.44;;;9.21;85.66
28588;BME280;15787;49.662;10.162;2023-05-03T06:26:54;100119.19;;;9.46;85.11
28588;BME280;15787;49.662;10.162;2023-05-03T06:29:28;100116.81;;;9.48;84.37
28588;BME280;15787;49.662;10.162;2023-05-03T06:32:01;100121.59;;;9.44;84.14
28588;BME280;15787;49.662;10.162;2023-05-03T06:34:34;100117.19;;;9.43;83.83
28588;BME280;15787;49.662;10.162;2023-05-03T06:37:09;100117.63;;;9.60;83.59
28588;BME280;15787;49.662;10.162;2023-05-03T06:39:42;100119.19;;;9.75;83.72
28588;BME280;15787;49.662;10.162;2023-05-03T06:42:15;100118.03;;;9.76;84.31
28588;BME280;15787;49.662;10.162;2023-05-03T06:44:48;100115.97;;;10.08;83.64
28588;BME280;15787;49.662;10.162;2023-05-03T06:47:21;100113.97;;;10.26;82.57
28588;BME280;15787;49.662;10.162;2023-05-03T06:49:54;100117.88;;;10.46;82.88
28588;BME280;15787;49.662;10.162;2023-05-03T06:52:28;100107.06;;;10.55;81.48
28588;BME280;15787;49.662;10.162;2023-05-03T06:55:02;100116.19;;;10.66;80.78
28588;BME280;15787;49.662;10.162;2023-05-03T06:57:35;100113.47;;;10.52;81.76
28588;BME280;15787;49.662;10.162;2023-05-03T07:00:09;100116.19;;;10.70;81.28
28588;BME280;15787;49.662;10.162;2023-05-03T07:02:42;100113.75;;;10.79;81.57
28588;BME280;15787;49.662;10.162;2023-05-03T07:05:15;100107.63;;;11.05;81.09
28588;BME280;15787;49.662;10.162;2023-05-03T07:07:49;100111.53;;;11.18;80.12
28588;BME280;15787;49.662;10.162;2023-05-03T07:10:22;100107.19;;;11.07;80.20
28588;BME280;15787;49.662;10.162;2023-05-03T07:12:56;100103.47;;;11.27;80.13
28588;BME280;15787;49.662;10.162;2023-05-03T07:15:30;100102.00;;;11.64;77.78
28588;BME280;15787;49.662;10.162;2023-05-03T07:18:03;100092.31;;;11.75;78.49
28588;BME280;15787;49.662;10.162;2023-05-03T07:20:36;100093.75;;;11.42;79.26
28588;BME280;15787;49.662;10.162;2023-05-03T07:23:10;100100.91;;;11.95;79.08
28588;BME280;15787;49.662;10.162;2023-05-03T07:25:43;100098.78;;;11.69;77.26
28588;BME280;15787;49.662;10.162;2023-05-03T07:28:16;100086.59;;;12.27;78.35
28588;BME280;15787;49.662;10.162;2023-05-03T07:30:49;100088.13;;;12.31;76.58
28588;BME280;15787;49.662;10.162;2023-05-03T07:33:22;100084.19;;;12.59;75.08
28588;BME280;15787;49.662;10.162;2023-05-03T07:35:55;100083.47;;;12.82;73.60
28588;BME280;15787;49.662;10.162;2023-05-03T07:38:30;100078.63;;;13.16;73.42
28588;BME280;15787;49.662;10.162;2023-05-03T07:41:04;100072.69;;;13.37;74.13
28588;BME280;15787;49.662;10.162;2023-05-03T07:43:37;100078.53;;;13.69;72.33
28588;BME280;15787;49.662;10.162;2023-05-03T07:46:10;100069.09;;;13.10;72.98
28588;BME280;15787;49.662;10.162;2023-05-03T07:48:44;100069.69;;;13.48;73.79
28588;BME280;15787;49.662;10.162;2023-05-03T07:51:17;100071.81;;;13.63;72.51
28588;BME280;15787;49.662;10.162;2023-05-03T07:53:51;100066.94;;;13.90;72.65
28588;BME280;15787;49.662;10.162;2023-05-03T07:56:26;100060.56;;;14.10;72.84
28588;BME280;15787;49.662;10.162;2023-05-03T07:58:59;100066.75;;;14.21;70.84
28588;BME280;15787;49.662;10.162;2023-05-03T08:01:35;100064.81;;;14.18;69.24
28588;BME280;15787;49.662;10.162;2023-05-03T08:04:08;100070.53;;;13.68;68.58
28588;BME280;15787;49.662;10.162;2023-05-03T08:06:41;100072.56;;;13.67;68.59
28588;BME280;15787;49.662;10.162;2023-05-03T08:09:16;100062.16;;;14.30;67.90
28588;BME280;15787;49.662;10.162;2023-05-03T08:11:49;100067.47;;;14.25;67.60
28588;BME280;15787;49.662;10.162;2023-05-03T08:14:22;100067.25;;;15.10;67.65
28588;BME280;15787;49.662;10.162;2023-05-03T08:16:55;100070.50;;;14.73;65.12
28588;BME280;15787;49.662;10.162;2023-05-03T08:19:28;100072.47;;;14.37;66.02
28588;BME280;15787;49.662;10.162;2023-05-03T08:22:01;100072.28;;;14.24;65.18
28588;BME280;15787;49.662;10.162;2023-05-03T08:24:35;100071.72;;;14.13;66.87
28588;BME280;15787;49.662;10.162;2023-05-03T08:27:08;100063.16;;;14.79;65.87
28588;BME280;15787;49.662;10.162;2023-05-03T08:29:43;100056.03;;;15.43;64.67
28588;BME280;15787;49.662;10.162;2023-05-03T08:32:16;100076.72;;;14.84;64.72
28588;BME280;15787;49.662;10.162;2023-05-03T08:34:48;100053.81;;;15.34;62.52
28588;BME280;15787;49.662;10.162;2023-05-03T08:37:22;100061.00;;;15.71;63.94
28588;BME280;15787;49.662;10.162;2023-05-03T08:39:56;100064.28;;;15.34;62.60
28588;BME280;15787;49.662;10.162;2023-05-03T08:42:33;100068.25;;;15.20;63.26
28588;BME280;15787;49.662;10.162;2023-05-03T08:45:09;100070.16;;;16.04;61.65
28588;BME280;15787;49.662;10.162;2023-05-03T08:47:42;100065.56;;;15.81;60.85
28588;BME280;15787;49.662;10.162;2023-05-03T08:50:16;100059.59;;;16.08;61.72
28588;BME280;15787;49.662;10.162;2023-05-03T08:52:49;100066.13;;;15.24;64.96
28588;BME280;15787;49.662;10.162;2023-05-03T08:55:24;100070.31;;;16.13;62.30
28588;BME280;15787;49.662;10.162;2023-05-03T08:57:58;100066.97;;;17.13;61.01
28588;BME280;15787;49.662;10.162;2023-05-03T09:00:32;100058.16;;;17.11;61.25
28588;BME280;15787;49.662;10.162;2023-05-03T09:03:05;100064.50;;;17.02;59.54
28588;BME280;15787;49.662;10.162;2023-05-03T09:05:38;100064.50;;;17.02;60.09
28588;BME280;15787;49.662;10.162;2023-05-03T09:08:13;100065.03;;;17.48;59.02
28588;BME280;15787;49.662;10.162;2023-05-03T09:10:49;100064.47;;;17.65;59.68
28588;BME280;15787;49.662;10.162;2023-05-03T09:13:28;100068.19;;;16.87;57.42
28588;BME280;15787;49.662;10.162;2023-05-03T09:16:02;100072.91;;;16.65;58.08
28588;BME280;15787;49.662;10.162;2023-05-03T09:18:35;100068.31;;;17.08;57.87
28588;BME280;15787;49.662;10.162;2023-05-03T09:21:17;100073.19;;;17.33;58.33
28588;BME280;15787;49.662;10.162;2023-05-03T09:23:51;100083.66;;;15.96;59.02
28588;BME280;15787;49.662;10.162;2023-05-03T09:26:30;100079.38;;;16.20;58.92
28588;BME280;15787;49.662;10.162;2023-05-03T09:29:04;100081.31;;;15.10;61.67
28588;BME280;15787;49.662;10.162;2023-05-03T09:31:57;100069.72;;;16.05;60.26
28588;BME280;15787;49.662;10.162;2023-05-03T09:34:30;100076.78;;;15.97;60.53
28588;BME280;15787;49.662;10.162;2023-05-03T09:37:03;100066.06;;;16.50;60.17
28588;BME280;15787;49.662;10.162;2023-05-03T09:39:36;100071.09;;;15.68;59.54
28588;BME280;15787;49.662;10.162;2023-05-03T09:42:13;100068.16;;;16.62;59.61
28588;BME280;15787;49.662;10.162;2023-05-03T09:44:47;100061.22;;;17.17;57.31
28588;BME280;15787;49.662;10.162;2023-05-03T09:47:22;100057.88;;;17.81;56.83
28588;BME280;15787;49.662;10.162;2023-05-03T09:49:56;100053.63;;;17.51;56.12
28588;BME280;15787;49.662;10.162;2023-05-03T09:52:29;100060.63;;;17.47;55.17
28588;BME280;15787;49.662;10.162;2023-05-03T09:55:03;100057.38;;;17.36;56.43
28588;BME280;15787;49.662;10.162;2023-05-03T09:57:37;100049.03;;;18.69;55.58
28588;BME280;15787;49.662;10.162;2023-05-03T10:00:12;100044.88;;;19.14;52.28
28588;BME280;15787;49.662;10.162;2023-05-03T10:02:48;100048.81;;;19.16;54.65
28588;BME280;15787;49.662;10.162;2023-05-03T10:05:23;100041.97;;;18.74;54.07
28588;BME280;15787;49.662;10.162;2023-05-03T10:08:00;100048.22;;;18.25;55.28
28588;BME280;15787;49.662;10.162;2023-05-03T10:10:34;100044.63;;;17.91;56.68
28588;BME280;15787;49.662;10.162;2023-05-03T10:13:08;100050.44;;;17.87;56.41
28588;BME280;15787;49.662;10.162;2023-05-03T10:15:44;100038.72;;;17.63;56.22
28588;BME280;15787;49.662;10.162;2023-05-03T10:18:19;100035.44;;;18.55;55.84
28588;BME280;15787;49.662;10.162;2023-05-03T10:20:57;100041.41;;;18.57;55.15
28588;BME280;15787;49.662;10.162;2023-05-03T10:23:33;100036.88;;;18.60;55.50
28588;BME280;15787;49.662;10.162;2023-05-03T10:26:13;100033.91;;;18.42;54.11
28588;BME280;15787;49.662;10.162;2023-05-03T10:28:47;100024.59;;;18.84;55.90
28588;BME280;15787;49.662;10.162;2023-05-03T10:31:42;100032.34;;;17.85;55.06
28588;BME280;15787;49.662;10.162;2023-05-03T10:34:20;100034.09;;;17.57;55.24
28588;BME280;15787;49.662;10.162;2023-05-03T10:36:54;100031.41;;;18.65;52.77
28588;BME280;15787;49.662;10.162;2023-05-03T10:39:28;100027.69;;;17.91;55.29
28588;BME280;15787;49.662;10.162;2023-05-03T10:42:03;100026.09;;;18.46;53.88
28588;BME280;15787;49.662;10.162;2023-05-03T10:44:49;100016.56;;;17.49;56.54
28588;BME280;15787;49.662;10.162;2023-05-03T10:47:23;100026.34;;;17.83;57.59
28588;BME280;15787;49.662;10.162;2023-05-03T10:50:26;100020.75;;;19.00;56.30
28588;BME280;15787;49.662;10.162;2023-05-03T10:52:59;100029.47;;;18.84;54.40
28588;BME280;15787;49.662;10.162;2023-05-03T10:55:32;100024.69;;;18.72;53.15
28588;BME280;15787;49.662;10.162;2023-05-03T10:58:09;100019.19;;;17.44;55.00
28588;BME280;15787;49.662;10.162;2023-05-03T11:00:47;100022.00;;;17.69;56.83
28588;BME280;15787;49.662;10.162;2023-05-03T11:03:33;100017.47;;;19.02;54.31
28588;BME280;15787;49.662;10.162;2023-05-03T11:06:09;100021.41;;;18.52;54.21
28588;BME280;15787;49.662;10.162;2023-05-03T11:08:47;100018.19;;;19.33;52.98
28588;BME280;15787;49.662;10.162;2023-05-03T11:11:20;100013.28;;;18.84;52.99
28588;BME280;15787;49.662;10.162;2023-05-03T11:13:53;100015.75;;;19.13;53.70
28588;BME280;15787;49.662;10.162;2023-05-03T11:16:28;99996.09;;;20.22;49.07
28588;BME280;15787;49.662;10.162;2023-05-03T11:19:01;100003.03;;;19.18;52.72
28588;BME280;15787;49.662;10.162;2023-05-03T11:21:34;99998.31;;;19.82;52.60
28588;BME280;15787;49.662;10.162;2023-05-03T11:24:08;99991.13;;;18.92;52.29
28588;BME280;15787;49.662;10.162;2023-05-03T11:26:41;99986.78;;;19.58;53.10
28588;BME280;15787;49.662;10.162;2023-05-03T11:29:14;99977.50;;;19.39;52.25
28588;BME280;15787;49.662;10.162;2023-05-03T11:31:50;99981.75;;;19.53;50.80
28588;BME280;15787;49.662;10.162;2023-05-03T11:34:23;99986.28;;;18.92;52.30
28588;BME280;15787;49.662;10.162;2023-05-03T11:36:56;99987.34;;;18.12;55.01
28588;BME280;15787;49.662;10.162;2023-05-03T11:39:31;99978.16;;;19.04;53.73
28588;BME280;15787;49.662;10.162;2023-05-03T11:42:04;99977.91;;;19.29;52.88
28588;BME280;15787;49.662;10.162;2023-05-03T11:44:37;99981.72;;;18.95;52.52
28588;BME280;15787;49.662;10.162;2023-05-03T11:47:11;99974.72;;;19.85;51.29
28588;BME280;15787;49.662;10.162;2023-05-03T11:49:50;99966.75;;;20.61;50.67
28588;BME280;15787;49.662;10.162;2023-05-03T11:52:25;99969.78;;;19.49;51.72
28588;BME280;15787;49.662;10.162;2023-05-03T11:54:59;99977.50;;;18.38;52.49
28588;BME280;15787;49.662;10.162;2023-05-03T11:57:34;99972.75;;;18.57;51.31
28588;BME280;15787;49.662;10.162;2023-05-03T12:00:11;99963.88;;;19.25;51.58
28588;BME280;15787;49.662;10.162;2023-05-03T12:02:49;99963.03;;;19.74;52.71
28588;BME280;15787;49.662;10.162;2023-05-03T12:05:22;99971.59;;;19.25;51.75
28588;BME280;15787;49.662;10.162;2023-05-03T12:07:56;99959.22;;;20.40;52.18
28588;BME280;15787;49.662;10.162;2023-05-03T12:10:31;99959.88;;;19.81;49.57
28588;BME280;15787;49.662;10.162;2023-05-03T12:13:06;99955.97;;;19.69;51.74
28588;BME280;15787;49.662;10.162;2023-05-03T12:15:40;99957.44;;;20.61;52.66
28588;BME280;15787;49.662;10.162;2023-05-03T12:18:44;99946.19;;;20.15;51.33
28588;BME280;15787;49.662;10.162;2023-05-03T12:21:19;99946.16;;;20.43;48.07
28588;BME280;15787;49.662;10.162;2023-05-03T12:23:55;99945.47;;;20.99;49.28
28588;BME280;15787;49.662;10.162;2023-05-03T12:26:31;99938.63;;;21.14;48.63
28588;BME280;15787;49.662;10.162;2023-05-03T12:29:04;99939.97;;;21.28;47.64
28588;BME280;15787;49.662;10.162;2023-05-03T12:31:37;99938.91;;;20.84;48.62
28588;BME280;15787;49.662;10.162;2023-05-03T12:34:15;99938.13;;;20.41;48.33
28588;BME280;15787;49.662;10.162;2023-05-03T12:36:51;99939.41;;;20.82;49.25
28588;BME280;15787;49.662;10.162;2023-05-03T12:39:25;99933.28;;;22.31;46.07
28588;BME280;15787;49.662;10.162;2023-05-03T12:41:58;99926.72;;;21.49;48.62
28588;BME280;15787;49.662;10.162;2023-05-03T12:44:37;99930.41;;;21.16;49.02
28588;BME280;15787;49.662;10.162;2023-05-03T12:47:13;99923.34;;;22.56;44.93
28588;BME280;15787;49.662;10.162;2023-05-03T12:49:58;99915.97;;;21.53;46.75
28588;BME280;15787;49.662;10.162;2023-05-03T12:52:36;99923.53;;;21.56;47.75
28588;BME280;15787;49.662;10.162;2023-05-03T12:55:10;99931.41;;;22.14;44.73
28588;BME280;15787;49.662;10.162;2023-05-03T12:57:49;99925.91;;;22.10;44.82
28588;BME280;15787;49.662;10.162;2023-05-03T13:00:42;99921.59;;;21.38;45.80
28588;BME280;15787;49.662;10.162;2023-05-03T13:03:35;99905.03;;;21.36;46.06
28588;BME280;15787;49.662;10.162;2023-05-03T13:06:16;99916.97;;;22.90;44.19
28588;BME280;15787;49.662;10.162;2023-05-03T13:08:50;99913.16;;;21.91;45.57
28588;BME280;15787;49.662;10.162;2023-05-03T13:11:23;99907.34;;;22.88;43.48
28588;BME280;15787;49.662;10.162;2023-05-03T13:13:56;99905.38;;;21.53;44.85
28588;BME280;15787;49.662;10.162;2023-05-03T13:16:30;99909.25;;;18.98;46.83
28588;BME280;15787;49.662;10.162;2023-05-03T13:19:03;99904.41;;;20.34;47.56
28588;BME280;15787;49.662;10.162;2023-05-03T13:21:37;99898.25;;;21.10;46.12
28588;BME280;15787;49.662;10.162;2023-05-03T13:24:10;99893.19;;;20.82;44.52